sensor_id;sensor_type;location;lat;lon;timestamp;pressure;altitude;pressure_sealevel;temperature;humidity
4586;BME280;2305;50.118;8.952;2022-12-18T00:00:17;102012.34;;;-6.21;100.00
4586;BME280;2305;50.118;8.952;2022-12-18T00:02:49;102015.63;;;-6.31;100.00
4586;BME280;2305;50.118;8.952;2022-12-18T00:05:18;102002.81;;;-6.31;100.00
4586;BME280;2305;50.118;8.952;2022-12-18T00:07:52;102015.63;;;-6.31;100.00
4586;BME280;2305;50.118;8.952;2022-12-18T00:10:21;102013.75;;;-6.43;100.00
4586;BME280;2305;50.118;8.952;2022-12-18T00:12:49;102012.00;;;-6.45;100.00
4586;BME280;2305;50.118;8.952;2022-12-18T00:15:19;102009.34;;;-6.51;100.00
4586;BME280;2305;50.118;8.952;2022-12-18T00:17:49;102005.94;;;-6.53;100.00
4586;BME280;2305;50.118;8.952;2022-12-18T00:20:19;102011.84;;;-6.57;100.00
4586;BME280;2305;50.118;8.952;2022-12-18T00:22:52;102010.06;;;-6.63;100.00
4586;BME280;2305;50.118;8.952;2022-12-18T00:25:22;102018.56;;;-6.65;100.00
4586;BME280;2305;50.118;8.952;2022-12-18T00:27:51;102021.91;;;-6.69;100.00
4586;BME280;2305;50.118;8.952;2022-12-18T00:30:23;102024.41;;;-6.72;100.00
4586;BME280;2305;50.118;8.952;2022-12-18T00:32:51;102026.03;;;-6.77;100.00
4586;BME280;2305;50.118;8.952;2022-12-18T00:35:20;102027.75;;;-6.76;100.00
4586;BME280;2305;50.118;8.952;2022-12-18T00:37:51;102024.34;;;-6.77;100.00
4586;BME280;2305;50.118;8.952;2022-12-18T00:40:19;102014.88;;;-6.81;100.00
4586;BME280;2305;50.118;8.952;2022-12-18T00:42:51;102007.19;;;-6.81;100.00
4586;BME280;2305;50.118;8.952;2022-12-18T00:45:27;102008.88;;;-6.83;100.00
4586;BME280;2305;50.118;8.952;2022-12-18T00:47:56;102015.69;;;-6.83;100.00
4586;BME280;2305;50.118;8.952;2022-12-18T00:50:25;102021.63;;;-6.86;100.00
4586;BME280;2305;50.118;8.952;2022-12-18T00:52:53;102022.38;;;-6.94;100.00
4586;BME280;2305;50.118;8.952;2022-12-18T00:55:21;102017.22;;;-6.96;100.00
4586;BME280;2305;50.118;8.952;2022-12-18T00:57:52;102012.94;;;-6.97;100.00
4586;BME280;2305;50.118;8.952;2022-12-18T01:00:20;102015.44;;;-7.00;100.00
4586;BME280;2305;50.118;8.952;2022-12-18T01:02:50;102014.53;;;-7.02;100.00
4586;BME280;2305;50.118;8.952;2022-12-18T01:05:20;102033.28;;;-7.06;100.00
4586;BME280;2305;50.118;8.952;2022-12-18T01:07:48;102034.09;;;-7.08;100.00
4586;BME280;2305;50.118;8.952;2022-12-18T01:10:17;102036.56;;;-7.13;100.00
4586;BME280;2305;50.118;8.952;2022-12-18T01:12:45;102034.84;;;-7.14;100.00
4586;BME280;2305;50.118;8.952;2022-12-18T01:15:14;102033.09;;;-7.16;100.00
4586;BME280;2305;50.118;8.952;2022-12-18T01:17:45;102027.06;;;-7.20;100.00
4586;BME280;2305;50.118;8.952;2022-12-18T01:20:15;102015.09;;;-7.21;100.00
4586;BME280;2305;50.118;8.952;2022-12-18T01:22:44;102027.84;;;-7.24;100.00
4586;BME280;2305;50.118;8.952;2022-12-18T01:25:15;102028.69;;;-7.25;100.00
4586;BME280;2305;50.118;8.952;2022-12-18T01:27:45;102037.22;;;-7.24;100.00
4586;BME280;2305;50.118;8.952;2022-12-18T01:30:14;102031.97;;;-7.32;100.00
4586;BME280;2305;50.118;8.952;2022-12-18T01:32:44;102034.44;;;-7.36;100.00
4586;BME280;2305;50.118;8.952;2022-12-18T01:35:16;102042.09;;;-7.38;100.00
4586;BME280;2305;50.118;8.952;2022-12-18T01:37:45;102050.66;;;-7.36;100.00
4586;BME280;2305;50.118;8.952;2022-12-18T01:40:14;102048.03;;;-7.39;100.00
4586;BME280;2305;50.118;8.952;2022-12-18T01:42:43;102045.47;;;-7.39;100.00
4586;BME280;2305;50.118;8.952;2022-12-18T01:45:26;102050.56;;;-7.42;100.00
4586;BME280;2305;50.118;8.952;2022-12-18T01:47:59;102059.03;;;-7.44;100.00
4586;BME280;2305;50.118;8.952;2022-12-18T01:50:31;102057.25;;;-7.48;100.00
4586;BME280;2305;50.118;8.952;2022-12-18T01:53:07;102057.28;;;-7.47;100.00
4586;BME280;2305;50.118;8.952;2022-12-18T01:55:43;102053.94;;;-7.43;100.00
4586;BME280;2305;50.118;8.952;2022-12-18T01:58:13;102043.66;;;-7.46;100.00
4586;BME280;2305;50.118;8.952;2022-12-18T02:00:42;102037.56;;;-7.51;100.00
4586;BME280;2305;50.118;8.952;2022-12-18T02:03:11;102032.47;;;-7.52;100.00
4586;BME280;2305;50.118;8.952;2022-12-18T02:05:44;102033.25;;;-7.53;100.00
4586;BME280;2305;50.118;8.952;2022-12-18T02:08:19;102029.00;;;-7.53;100.00
4586;BME280;2305;50.118;8.952;2022-12-18T02:10:57;102033.25;;;-7.55;100.00
4586;BME280;2305;50.118;8.952;2022-12-18T02:13:36;102033.22;;;-7.56;100.00
4586;BME280;2305;50.118;8.952;2022-12-18T02:16:19;102036.53;;;-7.60;100.00
4586;BME280;2305;50.118;8.952;2022-12-18T02:18:57;102036.53;;;-7.60;100.00
4586;BME280;2305;50.118;8.952;2022-12-18T02:21:49;102031.47;;;-7.59;100.00
4586;BME280;2305;50.118;8.952;2022-12-18T02:24:29;102027.13;;;-7.63;100.00
4586;BME280;2305;50.118;8.952;2022-12-18T02:27:06;102012.53;;;-7.67;100.00
4586;BME280;2305;50.118;8.952;2022-12-18T02:29:38;102016.78;;;-7.69;100.00
4586;BME280;2305;50.118;8.952;2022-12-18T02:32:12;102025.28;;;-7.70;100.00
4586;BME280;2305;50.118;8.952;2022-12-18T02:34:43;102035.50;;;-7.71;100.00
4586;BME280;2305;50.118;8.952;2022-12-18T02:37:16;102025.09;;;-7.80;100.00
4586;BME280;2305;50.118;8.952;2022-12-18T02:39:53;102036.13;;;-7.83;100.00
4586;BME280;2305;50.118;8.952;2022-12-18T02:42:25;102031.69;;;-7.91;100.00
4586;BME280;2305;50.118;8.952;2022-12-18T02:44:59;102026.50;;;-7.94;100.00
4586;BME280;2305;50.118;8.952;2022-12-18T02:47:31;102019.69;;;-7.95;100.00
4586;BME280;2305;50.118;8.952;2022-12-18T02:50:05;102020.59;;;-7.90;100.00
4586;BME280;2305;50.118;8.952;2022-12-18T02:52:42;102023.22;;;-7.89;100.00
4586;BME280;2305;50.118;8.952;2022-12-18T02:55:20;102034.41;;;-7.82;100.00
4586;BME280;2305;50.118;8.952;2022-12-18T02:58:07;102040.22;;;-7.89;100.00
4586;BME280;2305;50.118;8.952;2022-12-18T03:00:43;102037.63;;;-7.92;100.00
4586;BME280;2305;50.118;8.952;2022-12-18T03:03:24;102044.38;;;-7.96;100.00
4586;BME280;2305;50.118;8.952;2022-12-18T03:05:57;102034.81;;;-8.04;100.00
4586;BME280;2305;50.118;8.952;2022-12-18T03:08:31;102027.97;;;-8.05;100.00
4586;BME280;2305;50.118;8.952;2022-12-18T03:11:05;102028.81;;;-8.06;100.00
4586;BME280;2305;50.118;8.952;2022-12-18T03:13:39;102024.56;;;-8.06;100.00
4586;BME280;2305;50.118;8.952;2022-12-18T03:16:16;102020.28;;;-8.07;100.00
4586;BME280;2305;50.118;8.952;2022-12-18T03:18:52;102032.94;;;-8.13;100.00
4586;BME280;2305;50.118;8.952;2022-12-18T03:21:29;102042.22;;;-8.18;100.00
4586;BME280;2305;50.118;8.952;2022-12-18T03:24:01;102033.59;;;-8.23;100.00
4586;BME280;2305;50.118;8.952;2022-12-18T03:26:34;102020.72;;;-8.27;100.00
4586;BME280;2305;50.118;8.952;2022-12-18T03:29:07;102025.81;;;-8.29;100.00
4586;BME280;2305;50.118;8.952;2022-12-18T03:31:40;102033.38;;;-8.33;100.00
4586;BME280;2305;50.118;8.952;2022-12-18T03:34:12;102023.09;;;-8.36;100.00
4586;BME280;2305;50.118;8.952;2022-12-18T03:37:04;102020.47;;;-8.39;100.00
4586;BME280;2305;50.118;8.952;2022-12-18T03:39:36;102018.75;;;-8.40;100.00
4586;BME280;2305;50.118;8.952;2022-12-18T03:42:10;102022.19;;;-8.39;100.00
4586;BME280;2305;50.118;8.952;2022-12-18T03:44:54;102020.41;;;-8.42;100.00
4586;BME280;2305;50.118;8.952;2022-12-18T03:47:28;102028.91;;;-8.43;100.00
4586;BME280;2305;50.118;8.952;2022-12-18T03:50:09;102022.88;;;-8.46;100.00
4586;BME280;2305;50.118;8.952;2022-12-18T03:52:50;102025.38;;;-8.48;100.00
4586;BME280;2305;50.118;8.952;2022-12-18T03:55:32;102020.03;;;-8.58;100.00
4586;BME280;2305;50.118;8.952;2022-12-18T03:58:05;102026.84;;;-8.59;100.00
4586;BME280;2305;50.118;8.952;2022-12-18T04:00:56;102014.19;;;-8.54;100.00
4586;BME280;2305;50.118;8.952;2022-12-18T04:03:29;102018.44;;;-8.53;100.00
4586;BME280;2305;50.118;8.952;2022-12-18T04:06:03;102012.47;;;-8.55;100.00
4586;BME280;2305;50.118;8.952;2022-12-18T04:08:35;102017.63;;;-8.52;100.00
4586;BME280;2305;50.118;8.952;2022-12-18T04:11:06;102014.22;;;-8.51;100.00
4586;BME280;2305;50.118;8.952;2022-12-18T04:13:36;102024.31;;;-8.57;100.00
4586;BME280;2305;50.118;8.952;2022-12-18T04:16:14;102026.84;;;-8.59;100.00
4586;BME280;2305;50.118;8.952;2022-12-18T04:18:48;102030.19;;;-8.61;100.00
4586;BME280;2305;50.118;8.952;2022-12-18T04:21:19;102035.22;;;-8.64;100.00
4586;BME280;2305;50.118;8.952;2022-12-18T04:23:51;102023.31;;;-8.64;100.00
4586;BME280;2305;50.118;8.952;2022-12-18T04:26:22;102023.22;;;-8.67;100.00
4586;BME280;2305;50.118;8.952;2022-12-18T04:29:09;102014.63;;;-8.70;100.00
4586;BME280;2305;50.118;8.952;2022-12-18T04:31:39;102013.56;;;-8.81;100.00
4586;BME280;2305;50.118;8.952;2022-12-18T04:34:08;102029.69;;;-8.82;100.00
4586;BME280;2305;50.118;8.952;2022-12-18T04:36:43;102020.28;;;-8.85;100.00
4586;BME280;2305;50.118;8.952;2022-12-18T04:39:13;102016.00;;;-8.86;100.00
4586;BME280;2305;50.118;8.952;2022-12-18T04:41:51;102020.38;;;-8.80;100.00
4586;BME280;2305;50.118;8.952;2022-12-18T04:44:19;102017.63;;;-8.88;100.00
4586;BME280;2305;50.118;8.952;2022-12-18T04:46:49;102014.25;;;-8.88;100.00
4586;BME280;2305;50.118;8.952;2022-12-18T04:49:21;102030.41;;;-8.88;100.00
4586;BME280;2305;50.118;8.952;2022-12-18T04:51:53;102027.63;;;-8.97;100.00
4586;BME280;2305;50.118;8.952;2022-12-18T04:54:21;102023.25;;;-9.02;100.00
4586;BME280;2305;50.118;8.952;2022-12-18T04:56:49;102017.31;;;-9.01;100.00
4586;BME280;2305;50.118;8.952;2022-12-18T04:59:25;102016.53;;;-8.99;100.00
4586;BME280;2305;50.118;8.952;2022-12-18T05:01:55;102010.66;;;-8.96;100.00
4586;BME280;2305;50.118;8.952;2022-12-18T05:04:24;102013.19;;;-8.96;100.00
4586;BME280;2305;50.118;8.952;2022-12-18T05:06:52;102007.06;;;-9.04;100.00
4586;BME280;2305;50.118;8.952;2022-12-18T05:09:20;102007.06;;;-9.03;100.00
4586;BME280;2305;50.118;8.952;2022-12-18T05:11:52;102013.78;;;-9.06;100.00
4586;BME280;2305;50.118;8.952;2022-12-18T05:14:22;102015.56;;;-9.04;100.00
4586;BME280;2305;50.118;8.952;2022-12-18T05:16:50;102018.00;;;-9.08;100.00
4586;BME280;2305;50.118;8.952;2022-12-18T05:19:32;102016.06;;;-9.17;100.00
4586;BME280;2305;50.118;8.952;2022-12-18T05:22:03;102022.00;;;-9.19;100.00
4586;BME280;2305;50.118;8.952;2022-12-18T05:24:35;102025.34;;;-9.22;100.00
4586;BME280;2305;50.118;8.952;2022-12-18T05:27:06;102036.38;;;-9.21;100.00
4586;BME280;2305;50.118;8.952;2022-12-18T05:29:35;102033.88;;;-9.20;100.00
4586;BME280;2305;50.118;8.952;2022-12-18T05:32:07;102032.09;;;-9.22;100.00
4586;BME280;2305;50.118;8.952;2022-12-18T05:34:39;102026.00;;;-9.27;100.00
4586;BME280;2305;50.118;8.952;2022-12-18T05:37:07;102033.66;;;-9.29;100.00
4586;BME280;2305;50.118;8.952;2022-12-18T05:39:35;102029.28;;;-9.33;100.00
4586;BME280;2305;50.118;8.952;2022-12-18T05:42:04;102029.19;;;-9.37;100.00
4586;BME280;2305;50.118;8.952;2022-12-18T05:44:32;102025.72;;;-9.39;100.00
4586;BME280;2305;50.118;8.952;2022-12-18T05:47:04;102024.84;;;-9.40;100.00
4586;BME280;2305;50.118;8.952;2022-12-18T05:49:32;102023.06;;;-9.44;100.00
4586;BME280;2305;50.118;8.952;2022-12-18T05:52:02;102026.50;;;-9.42;100.00
4586;BME280;2305;50.118;8.952;2022-12-18T05:54:32;102032.59;;;-9.37;100.00
4586;BME280;2305;50.118;8.952;2022-12-18T05:57:00;102030.84;;;-9.39;100.00
4586;BME280;2305;50.118;8.952;2022-12-18T05:59:29;102029.13;;;-9.39;100.00
4586;BME280;2305;50.118;8.952;2022-12-18T06:02:00;102028.13;;;-9.45;100.00
4586;BME280;2305;50.118;8.952;2022-12-18T06:04:31;102045.06;;;-9.47;100.00
4586;BME280;2305;50.118;8.952;2022-12-18T06:07:02;102038.88;;;-9.57;100.00
4586;BME280;2305;50.118;8.952;2022-12-18T06:09:30;102037.22;;;-9.55;100.00
4586;BME280;2305;50.118;8.952;2022-12-18T06:11:58;102037.16;;;-9.58;100.00
4586;BME280;2305;50.118;8.952;2022-12-18T06:14:27;102033.72;;;-9.58;100.00
4586;BME280;2305;50.118;8.952;2022-12-18T06:16:56;102040.53;;;-9.57;100.00
4586;BME280;2305;50.118;8.952;2022-12-18T06:19:24;102041.47;;;-9.54;100.00
4586;BME280;2305;50.118;8.952;2022-12-18T06:21:52;102039.94;;;-9.49;100.00
4586;BME280;2305;50.118;8.952;2022-12-18T06:24:22;102035.72;;;-9.47;100.00
4586;BME280;2305;50.118;8.952;2022-12-18T06:26:52;102043.47;;;-9.44;100.00
4586;BME280;2305;50.118;8.952;2022-12-18T06:29:21;102041.81;;;-9.42;100.00
4586;BME280;2305;50.118;8.952;2022-12-18T06:31:49;102046.81;;;-9.46;100.00
4586;BME280;2305;50.118;8.952;2022-12-18T06:34:20;102041.59;;;-9.49;100.00
4586;BME280;2305;50.118;8.952;2022-12-18T06:36:49;102045.88;;;-9.48;100.00
4586;BME280;2305;50.118;8.952;2022-12-18T06:39:18;102046.63;;;-9.52;100.00
4586;BME280;2305;50.118;8.952;2022-12-18T06:41:48;102049.22;;;-9.51;100.00
4586;BME280;2305;50.118;8.952;2022-12-18T06:44:16;102056.06;;;-9.50;100.00
4586;BME280;2305;50.118;8.952;2022-12-18T06:46:45;102059.44;;;-9.49;100.00
4586;BME280;2305;50.118;8.952;2022-12-18T06:49:14;102067.09;;;-9.51;100.00
4586;BME280;2305;50.118;8.952;2022-12-18T06:51:45;102061.03;;;-9.54;100.00
4586;BME280;2305;50.118;8.952;2022-12-18T06:54:16;102064.38;;;-9.57;100.00
4586;BME280;2305;50.118;8.952;2022-12-18T06:56:45;102060.91;;;-9.59;100.00
4586;BME280;2305;50.118;8.952;2022-12-18T06:59:15;102061.59;;;-9.64;100.00
4586;BME280;2305;50.118;8.952;2022-12-18T07:01:46;102064.97;;;-9.65;100.00
4586;BME280;2305;50.118;8.952;2022-12-18T07:04:14;102072.63;;;-9.65;100.00
4586;BME280;2305;50.118;8.952;2022-12-18T07:06:42;102069.19;;;-9.67;100.00
4586;BME280;2305;50.118;8.952;2022-12-18T07:09:13;102076.88;;;-9.66;100.00
4586;BME280;2305;50.118;8.952;2022-12-18T07:11:42;102075.16;;;-9.65;100.00
4586;BME280;2305;50.118;8.952;2022-12-18T07:14:10;102077.78;;;-9.64;100.00
4586;BME280;2305;50.118;8.952;2022-12-18T07:16:40;102078.66;;;-9.62;100.00
4586;BME280;2305;50.118;8.952;2022-12-18T07:19:11;102090.66;;;-9.59;100.00
4586;BME280;2305;50.118;8.952;2022-12-18T07:21:43;102093.25;;;-9.56;100.00
4586;BME280;2305;50.118;8.952;2022-12-18T07:24:11;102103.56;;;-9.53;100.00
4586;BME280;2305;50.118;8.952;2022-12-18T07:26:40;102093.25;;;-9.56;100.00
4586;BME280;2305;50.118;8.952;2022-12-18T07:29:08;102100.09;;;-9.55;100.00
4586;BME280;2305;50.118;8.952;2022-12-18T07:31:40;102101.84;;;-9.54;100.00
4586;BME280;2305;50.118;8.952;2022-12-18T07:34:10;102090.81;;;-9.53;100.00
4586;BME280;2305;50.118;8.952;2022-12-18T07:36:38;102094.22;;;-9.53;100.00
4586;BME280;2305;50.118;8.952;2022-12-18T07:39:06;102094.22;;;-9.53;100.00
4586;BME280;2305;50.118;8.952;2022-12-18T07:41:35;102090.03;;;-9.51;100.00
4586;BME280;2305;50.118;8.952;2022-12-18T07:44:09;102085.50;;;-9.61;100.00
4586;BME280;2305;50.118;8.952;2022-12-18T07:46:39;102085.72;;;-9.53;100.00
4586;BME280;2305;50.118;8.952;2022-12-18T07:49:10;102084.09;;;-9.50;100.00
4586;BME280;2305;50.118;8.952;2022-12-18T07:51:41;102084.28;;;-9.44;100.00
4586;BME280;2305;50.118;8.952;2022-12-18T07:54:09;102092.13;;;-9.36;100.00
4586;BME280;2305;50.118;8.952;2022-12-18T07:56:38;102092.22;;;-9.33;100.00
4586;BME280;2305;50.118;8.952;2022-12-18T07:59:06;102084.75;;;-9.26;100.00
4586;BME280;2305;50.118;8.952;2022-12-18T08:01:35;102085.81;;;-9.18;100.00
4586;BME280;2305;50.118;8.952;2022-12-18T08:04:10;102091.13;;;-9.10;100.00
4586;BME280;2305;50.118;8.952;2022-12-18T08:06:38;102089.63;;;-9.02;100.00
4586;BME280;2305;50.118;8.952;2022-12-18T08:09:13;102085.38;;;-9.02;100.00
4586;BME280;2305;50.118;8.952;2022-12-18T08:11:41;102095.66;;;-8.99;100.00
4586;BME280;2305;50.118;8.952;2022-12-18T08:14:12;102090.59;;;-8.97;100.00
4586;BME280;2305;50.118;8.952;2022-12-18T08:16:41;102096.75;;;-8.89;100.00
4586;BME280;2305;50.118;8.952;2022-12-18T08:19:11;102099.31;;;-8.89;100.00
4586;BME280;2305;50.118;8.952;2022-12-18T08:21:42;102096.66;;;-8.94;100.00
4586;BME280;2305;50.118;8.952;2022-12-18T08:24:10;102103.59;;;-8.88;100.00
4586;BME280;2305;50.118;8.952;2022-12-18T08:26:39;102097.53;;;-8.92;100.00
4586;BME280;2305;50.118;8.952;2022-12-18T08:29:11;102088.34;;;-8.85;100.00
4586;BME280;2305;50.118;8.952;2022-12-18T08:31:47;102094.38;;;-8.83;100.00
4586;BME280;2305;50.118;8.952;2022-12-18T08:34:18;102087.59;;;-8.81;100.00
4586;BME280;2305;50.118;8.952;2022-12-18T08:36:50;102083.47;;;-8.75;100.00
4586;BME280;2305;50.118;8.952;2022-12-18T08:39:23;102090.38;;;-8.72;100.00
4586;BME280;2305;50.118;8.952;2022-12-18T08:41:53;102090.38;;;-8.72;100.00
4586;BME280;2305;50.118;8.952;2022-12-18T08:44:39;102079.34;;;-8.70;100.00
4586;BME280;2305;50.118;8.952;2022-12-18T08:47:10;102077.78;;;-8.65;100.00
4586;BME280;2305;50.118;8.952;2022-12-18T08:49:45;102090.81;;;-8.54;100.00
4586;BME280;2305;50.118;8.952;2022-12-18T08:52:16;102084.25;;;-8.43;100.00
4586;BME280;2305;50.118;8.952;2022-12-18T08:54:44;102077.66;;;-8.34;100.00
4586;BME280;2305;50.118;8.952;2022-12-18T08:57:12;102071.06;;;-8.25;100.00
4586;BME280;2305;50.118;8.952;2022-12-18T08:59:42;102070.47;;;-8.10;100.00
4586;BME280;2305;50.118;8.952;2022-12-18T09:02:12;102068.84;;;-8.07;100.00
4586;BME280;2305;50.118;8.952;2022-12-18T09:04:53;102060.59;;;-7.94;100.00
4586;BME280;2305;50.118;8.952;2022-12-18T09:07:25;102056.56;;;-7.83;100.00
4586;BME280;2305;50.118;8.952;2022-12-18T09:09:54;102060.19;;;-7.72;100.00
4586;BME280;2305;50.118;8.952;2022-12-18T09:12:24;102063.84;;;-7.61;100.00
4586;BME280;2305;50.118;8.952;2022-12-18T09:14:54;102064.88;;;-7.50;100.00
4586;BME280;2305;50.118;8.952;2022-12-18T09:17:24;102065.91;;;-7.42;100.00
4586;BME280;2305;50.118;8.952;2022-12-18T09:19:54;102068.66;;;-7.31;100.00
4586;BME280;2305;50.118;8.952;2022-12-18T09:22:27;102069.72;;;-7.20;100.00
4586;BME280;2305;50.118;8.952;2022-12-18T09:24:56;102081.81;;;-7.12;100.00
4586;BME280;2305;50.118;8.952;2022-12-18T09:27:25;102083.69;;;-7.02;100.00
4586;BME280;2305;50.118;8.952;2022-12-18T09:29:54;102089.84;;;-6.92;100.00
4586;BME280;2305;50.118;8.952;2022-12-18T09:32:24;102088.34;;;-6.81;100.00
4586;BME280;2305;50.118;8.952;2022-12-18T09:34:53;102099.63;;;-6.69;100.00
4586;BME280;2305;50.118;8.952;2022-12-18T09:37:22;102092.13;;;-6.58;100.00
4586;BME280;2305;50.118;8.952;2022-12-18T09:39:58;102088.03;;;-6.46;100.00
4586;BME280;2305;50.118;8.952;2022-12-18T09:42:29;102091.69;;;-6.29;100.00
4586;BME280;2305;50.118;8.952;2022-12-18T09:44:58;102096.22;;;-6.13;100.00
4586;BME280;2305;50.118;8.952;2022-12-18T09:47:30;102098.06;;;-6.03;100.00
4586;BME280;2305;50.118;8.952;2022-12-18T09:50:06;102096.53;;;-5.90;100.00
4586;BME280;2305;50.118;8.952;2022-12-18T09:52:51;102088.97;;;-5.77;100.00
4586;BME280;2305;50.118;8.952;2022-12-18T09:55:24;102092.63;;;-5.58;100.00
4586;BME280;2305;50.118;8.952;2022-12-18T09:58:06;102087.66;;;-5.46;100.00
4586;BME280;2305;50.118;8.952;2022-12-18T10:00:40;102091.22;;;-5.32;100.00
4586;BME280;2305;50.118;8.952;2022-12-18T10:03:11;102097.31;;;-5.24;100.00
4586;BME280;2305;50.118;8.952;2022-12-18T10:05:48;102096.56;;;-5.10;100.00
4586;BME280;2305;50.118;8.952;2022-12-18T10:08:24;102094.97;;;-5.00;100.00
4586;BME280;2305;50.118;8.952;2022-12-18T10:11:01;102086.38;;;-5.01;100.00
4586;BME280;2305;50.118;8.952;2022-12-18T10:13:34;102090.75;;;-4.92;100.00
4586;BME280;2305;50.118;8.952;2022-12-18T10:16:10;102089.16;;;-4.81;100.00
4586;BME280;2305;50.118;8.952;2022-12-18T10:18:59;102092.66;;;-4.72;100.00
4586;BME280;2305;50.118;8.952;2022-12-18T10:21:39;102094.47;;;-4.60;100.00
4586;BME280;2305;50.118;8.952;2022-12-18T10:24:22;102099.69;;;-4.51;100.00
4586;BME280;2305;50.118;8.952;2022-12-18T10:26:59;102107.38;;;-4.56;100.00
4586;BME280;2305;50.118;8.952;2022-12-18T10:29:33;102100.66;;;-4.35;100.00
4586;BME280;2305;50.118;8.952;2022-12-18T10:32:05;102086.19;;;-4.16;100.00
4586;BME280;2305;50.118;8.952;2022-12-18T10:34:36;102075.13;;;-4.05;100.00
4586;BME280;2305;50.118;8.952;2022-12-18T10:37:12;102063.19;;;-3.92;100.00
4586;BME280;2305;50.118;8.952;2022-12-18T10:39:45;102064.06;;;-3.84;100.00
4586;BME280;2305;50.118;8.952;2022-12-18T10:42:19;102067.56;;;-3.75;100.00
4586;BME280;2305;50.118;8.952;2022-12-18T10:45:01;102057.28;;;-3.66;100.00
4586;BME280;2305;50.118;8.952;2022-12-18T10:47:29;102049.63;;;-3.49;100.00
4586;BME280;2305;50.118;8.952;2022-12-18T10:49:58;102043.63;;;-3.33;100.00
4586;BME280;2305;50.118;8.952;2022-12-18T10:52:28;102046.22;;;-3.36;100.00
4586;BME280;2305;50.118;8.952;2022-12-18T10:55:02;102053.09;;;-3.34;100.00
4586;BME280;2305;50.118;8.952;2022-12-18T10:57:33;102062.50;;;-3.36;100.00
4586;BME280;2305;50.118;8.952;2022-12-18T11:00:23;102071.13;;;-3.26;100.00
4586;BME280;2305;50.118;8.952;2022-12-18T11:02:53;102062.56;;;-3.15;100.00
4586;BME280;2305;50.118;8.952;2022-12-18T11:05:26;102060.84;;;-3.14;100.00
4586;BME280;2305;50.118;8.952;2022-12-18T11:08:00;102062.56;;;-3.06;100.00
4586;BME280;2305;50.118;8.952;2022-12-18T11:10:31;102057.44;;;-3.07;100.00
4586;BME280;2305;50.118;8.952;2022-12-18T11:13:18;102054.84;;;-2.95;100.00
4586;BME280;2305;50.118;8.952;2022-12-18T11:15:48;102051.41;;;-2.88;100.00
4586;BME280;2305;50.118;8.952;2022-12-18T11:18:26;102054.88;;;-2.80;100.00
4586;BME280;2305;50.118;8.952;2022-12-18T11:21:07;102051.41;;;-2.67;100.00
4586;BME280;2305;50.118;8.952;2022-12-18T11:23:46;102049.72;;;-2.56;100.00
4586;BME280;2305;50.118;8.952;2022-12-18T11:26:19;102041.94;;;-2.41;100.00
4586;BME280;2305;50.118;8.952;2022-12-18T11:28:51;102050.53;;;-2.45;100.00
4586;BME280;2305;50.118;8.952;2022-12-18T11:31:24;102041.09;;;-2.43;100.00
4586;BME280;2305;50.118;8.952;2022-12-18T11:34:03;102037.63;;;-2.33;100.00
4586;BME280;2305;50.118;8.952;2022-12-18T11:36:54;102032.44;;;-2.21;100.00
4586;BME280;2305;50.118;8.952;2022-12-18T11:39:34;102035.00;;;-2.17;100.00
4586;BME280;2305;50.118;8.952;2022-12-18T11:42:12;102029.88;;;-2.20;100.00
4586;BME280;2305;50.118;8.952;2022-12-18T11:44:48;102025.47;;;-1.97;100.00
4586;BME280;2305;50.118;8.952;2022-12-18T11:47:24;102020.19;;;-1.74;100.00
4586;BME280;2305;50.118;8.952;2022-12-18T11:49:56;102019.28;;;-1.61;100.00
4586;BME280;2305;50.118;8.952;2022-12-18T11:52:32;102019.22;;;-1.49;100.00
4586;BME280;2305;50.118;8.952;2022-12-18T11:55:12;102010.53;;;-1.38;100.00
4586;BME280;2305;50.118;8.952;2022-12-18T11:57:50;102002.78;;;-1.39;100.00
4586;BME280;2305;50.118;8.952;2022-12-18T12:00:25;102006.25;;;-1.37;100.00
4586;BME280;2305;50.118;8.952;2022-12-18T12:03:13;102015.03;;;-1.70;100.00
4586;BME280;2305;50.118;8.952;2022-12-18T12:05:55;102018.41;;;-1.59;100.00
4586;BME280;2305;50.118;8.952;2022-12-18T12:08:36;102025.25;;;-1.53;100.00
4586;BME280;2305;50.118;8.952;2022-12-18T12:11:16;102013.25;;;-1.56;100.00
4586;BME280;2305;50.118;8.952;2022-12-18T12:14:06;102021.84;;;-1.55;100.00
4586;BME280;2305;50.118;8.952;2022-12-18T12:16:47;102016.78;;;-1.73;100.00
4586;BME280;2305;50.118;8.952;2022-12-18T12:19:32;102007.28;;;-1.70;100.00
4586;BME280;2305;50.118;8.952;2022-12-18T12:22:12;102015.09;;;-1.80;100.00
4586;BME280;2305;50.118;8.952;2022-12-18T12:25:01;102016.03;;;-2.04;100.00
4586;BME280;2305;50.118;8.952;2022-12-18T12:27:42;102023.81;;;-2.08;100.00
4586;BME280;2305;50.118;8.952;2022-12-18T12:30:19;102028.09;;;-2.07;100.00
4586;BME280;2305;50.118;8.952;2022-12-18T12:33:07;102029.00;;;-2.22;100.00
4586;BME280;2305;50.118;8.952;2022-12-18T12:35:46;102029.00;;;-2.22;100.00
4586;BME280;2305;50.118;8.952;2022-12-18T12:38:22;102028.19;;;-2.40;100.00
4586;BME280;2305;50.118;8.952;2022-12-18T12:40:54;102029.88;;;-2.30;100.00
4586;BME280;2305;50.118;8.952;2022-12-18T12:43:35;102022.94;;;-2.15;100.00
4586;BME280;2305;50.118;8.952;2022-12-18T12:46:17;102013.47;;;-2.11;100.00
4586;BME280;2305;50.118;8.952;2022-12-18T12:48:51;102003.16;;;-2.17;100.00
4586;BME280;2305;50.118;8.952;2022-12-18T12:51:24;101992.81;;;-2.11;100.00
4586;BME280;2305;50.118;8.952;2022-12-18T12:53:59;101992.84;;;-2.20;100.00
4586;BME280;2305;50.118;8.952;2022-12-18T12:56:37;101990.25;;;-2.17;100.00
4586;BME280;2305;50.118;8.952;2022-12-18T12:59:13;101969.63;;;-2.20;100.00
4586;BME280;2305;50.118;8.952;2022-12-18T13:01:50;101978.22;;;-2.23;100.00
4586;BME280;2305;50.118;8.952;2022-12-18T13:04:28;101979.06;;;-2.21;100.00
4586;BME280;2305;50.118;8.952;2022-12-18T13:07:03;101973.91;;;-2.19;100.00
4586;BME280;2305;50.118;8.952;2022-12-18T13:10:21;101973.09;;;-2.27;100.00
4586;BME280;2305;50.118;8.952;2022-12-18T13:12:56;101979.91;;;-2.17;100.00
4586;BME280;2305;50.118;8.952;2022-12-18T13:15:33;101985.94;;;-2.14;100.00
4586;BME280;2305;50.118;8.952;2022-12-18T13:18:19;101979.91;;;-2.11;100.00
4586;BME280;2305;50.118;8.952;2022-12-18T13:20:53;101974.75;;;-2.17;100.00
4586;BME280;2305;50.118;8.952;2022-12-18T13:23:33;101980.78;;;-2.09;100.00
4586;BME280;2305;50.118;8.952;2022-12-18T13:26:31;101981.59;;;-2.04;100.00
4586;BME280;2305;50.118;8.952;2022-12-18T13:29:05;101983.31;;;-2.00;100.00
4586;BME280;2305;50.118;8.952;2022-12-18T13:31:58;101980.72;;;-2.02;100.00